Time,TemperatureF,DewpointF,PressureIn,WindDirection,WindDirectionDegrees,WindSpeedMPH,WindSpeedGustMPH,Humidity,HourlyPrecipIn,Conditions,Clouds,dailyrainin,SoftwareType,DateUTC
2013-05-16 00:02:00,50.4,25.1,29.85,ENE,73,0.0,0.0,37,0.00,,,0.00,Wunderground v.1.15,2013-05-16 07:02:00,
2013-05-16 00:09:00,49.6,24.4,29.85,ENE,73,0.0,0.0,37,0.00,,,0.00,Wunderground v.1.15,2013-05-16 07:09:00,
2013-05-16 00:15:00,49.2,25.3,29.84,ENE,73,0.0,0.0,39,0.00,,,0.00,Wunderground v.1.15,2013-05-16 07:15:00,
2013-05-16 00:21:00,48.8,25.5,29.84,ENE,73,0.0,0.0,40,0.00,,,0.00,Wunderground v.1.15,2013-05-16 07:21:00,
2013-05-16 00:27:00,48.0,24.8,29.84,ENE,73,0.0,0.0,40,0.00,,,0.00,Wunderground v.1.15,2013-05-16 07:27:00,
2013-05-16 00:34:00,47.6,25.0,29.85,ENE,73,0.0,0.0,41,0.00,,,0.00,Wunderground v.1.15,2013-05-16 07:34:00,
2013-05-16 00:40:00,47.6,23.8,29.85,ENE,73,0.0,0.0,39,0.00,,,0.00,Wunderground v.1.15,2013-05-16 07:40:00,
2013-05-16 00:46:00,47.6,21.9,29.84,ENE,73,0.0,0.0,36,0.00,,,0.00,Wunderground v.1.15,2013-05-16 07:46:00,
2013-05-16 00:52:00,47.7,22.0,29.84,ENE,73,0.0,0.0,36,0.00,,,0.00,Wunderground v.1.15,2013-05-16 07:52:00,
2013-05-16 00:59:00,47.6,25.0,29.84,ENE,73,0.0,0.0,41,0.00,,,0.00,Wunderground v.1.15,2013-05-16 07:59:00,
2013-05-16 01:05:00,47.4,28.7,29.84,ENE,73,0.0,0.0,48,0.00,,,0.00,Wunderground v.1.15,2013-05-16 08:05:00,
2013-05-16 01:11:00,47.0,28.8,29.84,ENE,73,0.0,0.0,49,0.00,,,0.00,Wunderground v.1.15,2013-05-16 08:11:00,
2013-05-16 01:17:00,46.7,29.0,29.87,ENE,73,0.0,0.0,50,0.00,,,0.00,Wunderground v.1.15,2013-05-16 08:17:00,
2013-05-16 01:24:00,46.2,28.1,29.87,ENE,73,0.0,0.0,49,0.00,,,0.00,Wunderground v.1.15,2013-05-16 08:24:00,
2013-05-16 01:29:00,46.0,27.4,29.87,ENE,73,0.0,0.0,48,0.00,,,0.00,Wunderground v.1.15,2013-05-16 08:29:00,
2013-05-16 01:34:00,45.7,27.1,29.87,ENE,73,0.0,0.0,48,0.00,,,0.00,Wunderground v.1.15,2013-05-16 08:34:00,
2013-05-16 01:40:00,45.5,27.4,29.87,ENE,73,0.0,0.0,49,0.00,,,0.00,Wunderground v.1.15,2013-05-16 08:40:00,
2013-05-16 01:46:00,45.2,29.1,29.87,ENE,73,0.0,0.0,53,0.00,,,0.00,Wunderground v.1.15,2013-05-16 08:46:00,
2013-05-16 01:51:00,44.8,29.2,29.87,ENE,73,0.0,0.0,54,0.00,,,0.00,Wunderground v.1.15,2013-05-16 08:51:00,
2013-05-16 01:57:00,44.5,29.8,29.87,ENE,73,0.0,0.0,56,0.00,,,0.00,Wunderground v.1.15,2013-05-16 08:57:00,
2013-05-16 02:02:00,44.1,29.8,29.86,ENE,73,0.0,1.0,57,0.00,,,0.00,Wunderground v.1.15,2013-05-16 09:02:00,
2013-05-16 02:07:00,43.8,30.0,29.86,ENE,73,0.0,2.0,58,0.00,,,0.00,Wunderground v.1.15,2013-05-16 09:07:00,
2013-05-16 02:12:00,43.5,28.4,29.86,ENE,73,0.0,1.0,55,0.00,,,0.00,Wunderground v.1.15,2013-05-16 09:12:00,
2013-05-16 02:17:00,43.3,27.3,29.86,ENE,72,0.0,1.0,53,0.00,,,0.00,Wunderground v.1.15,2013-05-16 09:17:00,
2013-05-16 02:22:00,43.3,26.4,29.86,ENE,73,0.0,0.0,51,0.00,,,0.00,Wunderground v.1.15,2013-05-16 09:22:00,
2013-05-16 02:27:00,43.8,24.9,29.86,ENE,73,0.0,0.0,47,0.00,,,0.00,Wunderground v.1.15,2013-05-16 09:27:00,
2013-05-16 02:32:00,44.2,26.7,29.86,ENE,72,0.0,1.0,50,0.00,,,0.00,Wunderground v.1.15,2013-05-16 09:32:00,
2013-05-16 02:37:00,44.1,26.6,29.86,ENE,73,0.0,1.0,50,0.00,,,0.00,Wunderground v.1.15,2013-05-16 09:37:00,
2013-05-16 02:42:00,44.1,27.1,29.86,ENE,72,0.0,0.0,51,0.00,,,0.00,Wunderground v.1.15,2013-05-16 09:42:00,
2013-05-16 02:47:00,43.9,27.4,29.85,ENE,72,0.0,0.0,52,0.00,,,0.00,Wunderground v.1.15,2013-05-16 09:47:00,
2013-05-16 02:52:00,43.8,27.8,29.85,ENE,72,0.0,0.0,53,0.00,,,0.00,Wunderground v.1.15,2013-05-16 09:52:00,
2013-05-16 02:57:00,43.6,28.0,29.85,ENE,72,0.0,0.0,54,0.00,,,0.00,Wunderground v.1.15,2013-05-16 09:57:00,
2013-05-16 03:02:00,43.5,28.8,29.85,ENE,73,0.0,0.0,56,0.00,,,0.00,Wunderground v.1.15,2013-05-16 10:02:00,
2013-05-16 03:07:00,43.5,28.4,29.85,ENE,73,0.0,0.0,55,0.00,,,0.00,Wunderground v.1.15,2013-05-16 10:07:00,
2013-05-16 03:12:00,43.3,28.2,29.85,ENE,72,0.0,0.0,55,0.00,,,0.00,Wunderground v.1.15,2013-05-16 10:12:00,
2013-05-16 03:17:00,42.9,28.7,29.83,ENE,72,0.0,0.0,57,0.00,,,0.00,Wunderground v.1.15,2013-05-16 10:17:00,
2013-05-16 19:12:00,58.0,37.3,29.85,WNW,291,7.0,7.0,46,0.00,,,0.00,Wunderground v.1.15,2013-05-17 02:12:00,
2013-05-16 19:17:00,57.2,37.1,29.80,NW,312,9.0,13.0,47,0.00,,,0.00,Wunderground v.1.15,2013-05-17 02:17:00,
2013-05-16 19:22:00,56.5,37.0,29.80,WNW,289,1.0,9.0,48,0.00,,,0.00,Wunderground v.1.15,2013-05-17 02:22:00,
2013-05-16 19:27:00,56.0,37.6,29.80,WNW,298,6.0,9.0,50,0.00,,,0.00,Wunderground v.1.15,2013-05-17 02:27:00,
2013-05-16 19:32:00,55.4,37.6,29.81,NW,304,4.0,4.0,51,0.00,,,0.00,Wunderground v.1.15,2013-05-17 02:32:00,
2013-05-16 19:37:00,55.1,37.8,29.81,WSW,248,0.0,6.0,52,0.00,,,0.00,Wunderground v.1.15,2013-05-17 02:37:00,
2013-05-16 19:43:00,54.8,37.5,29.81,NW,304,0.0,2.0,52,0.00,,,0.00,Wunderground v.1.15,2013-05-17 02:43:00,
2013-05-16 19:48:00,54.7,37.4,29.82,NW,304,0.0,2.0,52,0.00,,,0.00,Wunderground v.1.15,2013-05-17 02:48:00,
2013-05-16 19:53:00,54.5,37.7,29.82,ENE,59,0.0,1.0,53,0.00,,,0.00,Wunderground v.1.15,2013-05-17 02:53:00,
2013-05-16 19:58:00,54.2,37.9,29.82,ENE,59,0.0,1.0,54,0.00,,,0.00,Wunderground v.1.15,2013-05-17 02:58:00,
2013-05-16 20:03:00,53.8,38.0,29.82,ENE,59,0.0,0.0,55,0.00,,,0.00,Wunderground v.1.15,2013-05-17 03:03:00,
2013-05-16 20:09:00,53.5,38.2,29.82,ENE,62,2.0,2.0,56,0.00,,,0.00,Wunderground v.1.15,2013-05-17 03:09:00,
2013-05-16 20:15:00,53.1,37.8,29.82,ENE,75,0.0,4.0,56,0.00,,,0.00,Wunderground v.1.15,2013-05-17 03:15:00,
2013-05-16 20:20:00,52.8,37.5,29.82,ENE,75,0.0,0.0,56,0.00,,,0.00,Wunderground v.1.15,2013-05-17 03:20:00,
2013-05-16 20:25:00,52.5,38.1,29.82,ENE,75,0.0,4.0,58,0.00,,,0.00,Wunderground v.1.15,2013-05-17 03:25:00,
2013-05-16 20:30:00,52.2,38.3,29.83,ENE,72,0.0,1.0,59,0.00,,,0.00,Wunderground v.1.15,2013-05-17 03:30:00,
2013-05-16 20:35:00,51.9,38.4,29.83,ENE,72,0.0,2.0,60,0.00,,,0.00,Wunderground v.1.15,2013-05-17 03:35:00,
2013-05-16 20:40:00,51.6,38.2,29.83,NE,49,0.0,4.0,60,0.00,,,0.00,Wunderground v.1.15,2013-05-17 03:40:00,
2013-05-16 20:45:00,51.6,38.2,29.83,NE,49,1.0,4.0,60,0.00,,,0.00,Wunderground v.1.15,2013-05-17 03:45:00,
2013-05-16 20:50:00,51.4,38.0,29.83,NE,49,0.0,0.0,60,0.00,,,0.00,Wunderground v.1.15,2013-05-17 03:50:00,
2013-05-16 20:55:00,51.4,38.0,29.83,NE,49,0.0,1.0,60,0.00,,,0.00,Wunderground v.1.15,2013-05-17 03:55:00,
2013-05-16 21:00:00,51.4,38.4,29.83,NE,49,0.0,0.0,61,0.00,,,0.00,Wunderground v.1.15,2013-05-17 04:00:00,
2013-05-16 21:01:00,51.3,38.3,29.83,NE,49,0.0,1.0,61,0.00,,,0.00,Wunderground v.1.15,2013-05-17 04:01:00,
2013-05-16 21:02:00,51.3,38.7,29.83,NE,49,0.0,1.0,62,0.00,,,0.00,Wunderground v.1.15,2013-05-17 04:02:00,
2013-05-16 21:07:00,51.1,38.5,29.83,NE,49,0.0,1.0,62,0.00,,,0.00,Wunderground v.1.15,2013-05-17 04:07:00,
2013-05-16 21:12:00,50.8,38.7,29.83,NE,49,0.0,0.0,63,0.00,,,0.00,Wunderground v.1.15,2013-05-17 04:12:00,
2013-05-16 21:17:00,50.7,38.6,29.83,NE,49,0.0,0.0,63,0.00,,,0.00,Wunderground v.1.15,2013-05-17 04:17:00,
2013-05-16 21:22:00,50.4,38.3,29.83,NE,49,0.0,0.0,63,0.00,,,0.00,Wunderground v.1.15,2013-05-17 04:22:00,
2013-05-16 21:27:00,50.2,38.1,29.83,NE,49,0.0,0.0,63,0.00,,,0.00,Wunderground v.1.15,2013-05-17 04:27:00,
2013-05-16 21:32:00,50.1,38.0,29.84,NE,49,0.0,2.0,63,0.00,,,0.00,Wunderground v.1.15,2013-05-17 04:32:00,
2013-05-16 21:37:00,50.2,37.7,29.84,NE,51,0.0,2.0,62,0.00,,,0.00,Wunderground v.1.15,2013-05-17 04:37:00,
2013-05-16 21:42:00,50.1,38.0,29.84,NE,49,0.0,1.0,63,0.00,,,0.00,Wunderground v.1.15,2013-05-17 04:42:00,
2013-05-16 21:47:00,50.1,38.0,29.84,NE,51,0.0,1.0,63,0.00,,,0.00,Wunderground v.1.15,2013-05-17 04:47:00,
2013-05-16 21:52:00,49.6,38.7,29.84,NE,48,0.0,1.0,66,0.00,,,0.00,Wunderground v.1.15,2013-05-17 04:52:00,
2013-05-16 21:57:00,49.4,38.5,29.84,NE,48,0.0,1.0,66,0.00,,,0.00,Wunderground v.1.15,2013-05-17 04:57:00,
2013-05-16 22:02:00,49.2,37.9,29.84,NE,48,0.0,1.0,65,0.00,,,0.00,Wunderground v.1.15,2013-05-17 05:02:00,
2013-05-16 22:07:00,49.2,37.9,29.84,NE,54,0.0,1.0,65,0.00,,,0.00,Wunderground v.1.15,2013-05-17 05:07:00,
2013-05-16 22:12:00,49.2,37.5,29.84,ENE,62,1.0,2.0,64,0.00,,,0.00,Wunderground v.1.15,2013-05-17 05:12:00,
2013-05-16 22:17:00,49.1,37.0,29.83,ENE,68,1.0,2.0,63,0.00,,,0.00,Wunderground v.1.15,2013-05-17 05:17:00,
2013-05-16 22:22:00,48.8,37.2,29.83,East,83,1.0,4.0,64,0.00,,,0.00,Wunderground v.1.15,2013-05-17 05:22:00,
2013-05-16 22:27:00,48.6,37.4,29.83,ENE,65,0.0,4.0,65,0.00,,,0.00,Wunderground v.1.15,2013-05-17 05:27:00,
2013-05-16 22:33:00,48.6,37.4,29.83,East,99,1.0,10.0,65,0.00,,,0.00,Wunderground v.1.15,2013-05-17 05:33:00,
2013-05-16 22:38:00,49.1,37.4,29.83,SE,133,0.0,10.0,64,0.00,,,0.00,Wunderground v.1.15,2013-05-17 05:38:00,
2013-05-16 22:42:00,49.4,37.7,29.83,ESE,102,4.0,6.0,64,0.00,,,0.00,Wunderground v.1.15,2013-05-17 05:42:00,
2013-05-16 22:47:00,49.4,37.7,29.83,ESE,114,6.0,10.0,64,0.00,,,0.00,Wunderground v.1.15,2013-05-17 05:47:00,
2013-05-16 22:53:00,49.5,37.8,29.83,East,96,0.0,6.0,64,0.00,,,0.00,Wunderground v.1.15,2013-05-17 05:53:00,
2013-05-16 22:59:00,49.4,37.7,29.83,SE,124,6.0,7.0,64,0.00,,,0.00,Wunderground v.1.15,2013-05-17 05:59:00,
2013-05-16 23:04:00,49.4,37.7,29.83,ESE,120,4.0,8.0,64,0.00,,,0.00,Wunderground v.1.15,2013-05-17 06:04:00,
2013-05-16 23:09:00,49.2,37.5,29.83,ESE,119,1.0,8.0,64,0.00,,,0.00,Wunderground v.1.15,2013-05-17 06:09:00,
2013-05-16 23:14:00,48.9,37.3,29.83,ESE,119,0.0,2.0,64,0.00,,,0.00,Wunderground v.1.15,2013-05-17 06:14:00,
2013-05-16 23:19:00,48.6,37.4,29.82,ESE,119,0.0,2.0,65,0.00,,,0.00,Wunderground v.1.15,2013-05-17 06:19:00,
2013-05-16 23:24:00,48.5,37.3,29.82,ESE,119,1.0,1.0,65,0.00,,,0.00,Wunderground v.1.15,2013-05-17 06:24:00,
2013-05-16 23:29:00,48.2,37.8,29.82,ESE,119,0.0,1.0,67,0.00,,,0.00,Wunderground v.1.15,2013-05-17 06:29:00,
2013-05-16 23:34:00,47.9,37.8,29.81,ESE,119,0.0,0.0,68,0.00,,,0.00,Wunderground v.1.15,2013-05-17 06:34:00,
2013-05-16 23:39:00,47.6,37.6,29.81,ESE,119,0.0,0.0,68,0.00,,,0.00,Wunderground v.1.15,2013-05-17 06:39:00,
2013-05-16 23:44:00,47.4,37.7,29.83,ESE,119,0.0,0.0,69,0.00,,,0.00,Wunderground v.1.15,2013-05-17 06:44:00,
2013-05-16 23:49:00,47.4,37.4,29.83,ESE,119,0.0,0.0,68,0.00,,,0.00,Wunderground v.1.15,2013-05-17 06:49:00,
2013-05-16 23:54:00,47.3,37.3,29.83,ESE,119,0.0,0.0,68,0.00,,,0.00,Wunderground v.1.15,2013-05-17 06:54:00,
2013-05-16 23:59:00,47.0,37.7,29.82,ESE,119,0.0,1.0,70,0.00,,,0.00,Wunderground v.1.15,2013-05-17 06:59:00,